Tzoanna Vi — SYHY — position and weather

sailwx.info

Track history (hours):
 
Tides and Currents Weather Stations Pressure Air Temp Water Temp Dewpoint Dewpoint Depression Visibility Wind Speed Wind Dir Waves Ship Positions

Tzoanna Vi

Last reported at 2017-Feb-25 17:30 UTC. Time now 2017-Feb-26 07:39 UTC.
Position N 38°04' E 024°08'.

Length 84 m; draft 3.6 m.

Type: Cargo ship. MMSI: 237991700.

Date/timePositionNaut miles runAvg speedWind from/ knotsBaromVisibWave heightAir tempDewpointWater temp
2017-Feb-25 17:30N 38°04' E 024°08'23 0.5
2017-Feb-23 18:32N 38°22' E 023°48'2 0.1
2017-Feb-23 00:21N 38°22' E 023°51'  
2017-Feb-17 22:33N 37°35' E 023°36'10 9.7
2017-Feb-17 21:33N 37°39' E 023°25'9 8.4
2017-Feb-17 20:33N 37°44' E 023°16'1010.2
2017-Feb-17 19:33N 37°52' E 023°09'7 6.6
2017-Feb-17 18:33N 37°55' E 023°02'0 0.0
2017-Feb-17 04:20N 37°55' E 023°02'3 3.4
2017-Feb-17 03:33N 37°54' E 023°04'5 5.5
2017-Feb-17 02:33N 37°51' E 023°10'6 5.9
2017-Feb-17 01:33N 37°46' E 023°15'5 5.3
2017-Feb-17 00:33N 37°41' E 023°18'5 5.2
2017-Feb-16 23:33N 37°39' E 023°24'6 6.1
2017-Feb-16 22:33N 37°39' E 023°32'7 7.1
2017-Feb-16 21:33N 37°39' E 023°41'8 8.1
2017-Feb-16 20:32N 37°38' E 023°51'11 8.5
2017-Feb-16 19:18N 37°38' E 024°04'  
Track history (hours):
 
Tides and Currents Weather Stations Pressure Air Temp Water Temp Dewpoint Dewpoint Depression Visibility Wind Speed Wind Dir Waves Ship Positions

Tzoanna Vi

Last reported at 2017-Feb-25 17:30 UTC. Time now 2017-Feb-26 07:39 UTC.
Position N 38°04' E 024°08'.

Length 84 m; draft 3.6 m.

Type: Cargo ship. MMSI: 237991700.

Date/timePositionNaut miles runAvg speedWind from/ knotsBaromVisibWave heightAir tempDewpointWater temp
2017-Feb-25 17:30N 38°04' E 024°08'23 0.5
2017-Feb-23 18:32N 38°22' E 023°48'2 0.1
2017-Feb-23 00:21N 38°22' E 023°51'  
2017-Feb-17 22:33N 37°35' E 023°36'10 9.7
2017-Feb-17 21:33N 37°39' E 023°25'9 8.4
2017-Feb-17 20:33N 37°44' E 023°16'1010.2
2017-Feb-17 19:33N 37°52' E 023°09'7 6.6
2017-Feb-17 18:33N 37°55' E 023°02'0 0.0
2017-Feb-17 04:20N 37°55' E 023°02'3 3.4
2017-Feb-17 03:33N 37°54' E 023°04'5 5.5
2017-Feb-17 02:33N 37°51' E 023°10'6 5.9
2017-Feb-17 01:33N 37°46' E 023°15'5 5.3
2017-Feb-17 00:33N 37°41' E 023°18'5 5.2
2017-Feb-16 23:33N 37°39' E 023°24'6 6.1
2017-Feb-16 22:33N 37°39' E 023°32'7 7.1
2017-Feb-16 21:33N 37°39' E 023°41'8 8.1
2017-Feb-16 20:32N 37°38' E 023°51'11 8.5
2017-Feb-16 19:18N 37°38' E 024°04'  

Dump ship's entire track history